Latest Coastal Weather Observations for Swan Island

IDT60701

Issued at 9:42 am EST Friday 19 August 2022 (issued every 10 minutes, with the page automatically refreshed every 10 minutes)

About coastal observations | Map of coastal stations | Coastal observations for TAS | Marine services | Other Formats
Station Details ID: 092123 Name: SWAN ISLAND Lat: -40.73 Lon: 148.12 Height: 15.0 m
Data from the previous 72 hours. | See also: Recent months at Swan Island
Date/Time
EST
Wind Sea
Height
m
Swell Vis
km
Cloud Weather Temp
°C
Press
MSL
hPa
Rain since
9am
mm
Dir  Spd
kts
Gust
kts
Height
m
Period
s
Dir
19/09:30am W 16 24 - - - - - - - 12.0 1009.5 0.0
19/09:00am W 16 23 - - - - - - - 11.6 1009.4 0.0
19/08:30am W 14 20 - - - - - - - 11.1 1009.2 0.0
19/08:00am W 17 23 - - - - - - - 10.6 1008.8 0.0
19/07:30am W 17 25 - - - - - - - 10.7 1008.1 0.0
19/07:00am W 19 25 - - - - - - - 10.7 1007.5 0.0
19/06:30am W 16 24 - - - - - - - 10.8 1007.3 0.0
19/06:00am W 19 24 - - - - - - - 11.1 1006.7 0.0
19/05:30am W 20 26 - - - - - - - 11.0 1006.5 0.0
19/05:00am W 18 25 - - - - - - - 11.0 1006.1 0.0
19/04:30am WNW 14 21 - - - - - - - 11.4 1005.8 0.0
19/04:00am WNW 13 18 - - - - - - - 11.3 1005.5 0.0
19/03:30am WNW 16 23 - - - - - - - 11.6 1005.5 0.0
19/03:00am WNW 16 24 - - - - - - - 11.6 1005.6 0.0
19/02:30am WNW 15 21 - - - - - - - 11.5 1005.6 0.0
19/02:00am WNW 16 22 - - - - - - - 11.5 1005.4 0.0
19/01:30am WNW 16 21 - - - - - - - 11.7 1005.5 0.0
19/01:00am WNW 14 19 - - - - - - - 11.9 1005.7 0.0
19/12:30am WNW 14 18 - - - - - - - 11.7 1005.3 0.0
19/12:00am WNW 13 17 - - - - - - - 11.9 1005.2 0.0
 
Date/Time
EST
Wind Sea
Height
m
Swell Vis
km
Cloud Weather Temp
°C
Press
MSL
hPa
Rain since
9am
mm
Dir  Spd
kts
Gust
kts
Height
m
Period
s
Dir
18/11:30pm WNW 13 17 - - - - - - - 11.9 1005.4 0.0
18/11:00pm WNW 14 19 - - - - - - - 12.0 1005.1 0.0
18/10:30pm WNW 15 21 - - - - - - - 12.0 1005.4 0.0
18/10:00pm WNW 15 20 - - - - - - - 12.1 1005.4 0.0
18/09:30pm WNW 14 20 - - - - - - - 12.0 1005.2 0.0
18/09:00pm WNW 14 20 - - - - - - - 12.1 1004.6 0.0
18/08:30pm WNW 19 26 - - - - - - - 12.2 1004.6 0.0
18/08:00pm WNW 18 27 - - - - - - - 12.1 1004.0 0.0
18/07:30pm WNW 20 26 - - - - - - - 12.1 1003.6 0.0
18/07:00pm WNW 20 27 - - - - - - - 12.2 1003.3 0.0
18/06:30pm WNW 21 29 - - - - - - - 12.3 1002.8 0.0
18/06:00pm NW 20 31 - - - - - - - 13.2 1002.4 0.0
18/05:58pm NW 20 31 - - - - - - - 13.2 1002.4 0.0
18/05:30pm NW 21 31 - - - - - - - 13.3 1002.2 0.0
18/05:00pm NW 25 31 - - - - - - - 13.4 1001.8 0.0
18/04:30pm NW 26 31 - - - - - - - 13.4 1001.6 0.0
18/04:00pm NW 27 34 - - - - - - - 13.6 1001.1 0.0
18/03:30pm NW 28 33 - - - - - - - 13.8 1001.1 0.0
18/03:00pm NW 28 36 - - - - - - - 13.8 1001.1 0.0
18/02:30pm NW 27 37 - - - - - - - 14.0 1001.1 0.0
18/02:24pm NW 26 37 - - - - - - - 14.3 1001.1 0.0
18/02:00pm NNW 27 33 - - - - - - - 13.9 1001.1 0.0
18/01:30pm NNW 27 33 - - - - - - - 13.8 1001.0 0.0
18/01:00pm NNW 27 32 - - - - - - - 13.8 1001.1 0.0
18/12:30pm NW 33 45 - - - - - - - 14.1 1001.6 0.0
18/12:00pm NNW 26 38 - - - - - - - 14.3 1001.6 0.0
18/11:30am NNW 23 29 - - - - - - - 13.8 1002.5 0.0
18/11:00am NNW 22 27 - - - - - - - 13.8 1002.8 0.0
18/10:30am NNW 21 26 - - - - - - - 13.4 1002.7 0.0
18/10:00am NNW 23 28 - - - - - - - 13.3 1003.3 0.0
18/09:30am NNW 25 30 - - - - - - - 13.5 1003.4 0.0
18/09:00am N 23 28 - - - - - - - 13.4 1003.9 1.8
18/08:30am N 19 23 - - - - - - - 12.9 1004.6 1.8
18/08:00am NNW 20 28 - - - - - - - 12.4 1004.9 1.8
18/07:30am NNW 22 26 - - - - - - - 12.4 1005.8 1.8
18/07:00am NNW 20 23 - - - - - - - 12.2 1005.8 1.8
18/06:30am NNW 22 25 - - - - - - - 12.3 1006.1 1.6
18/06:00am NNW 20 24 - - - - - - Recent precip. 12.1 1005.9 1.6
18/05:30am NNW 21 26 - - - - - - - 12.0 1006.2 1.6
18/05:00am NW 21 25 - - - - - - - 12.1 1006.8 1.2
18/04:30am NNW 21 26 - - - - - - - 11.9 1006.8 0.8
18/04:00am NNW 19 23 - - - - - - - 12.4 1007.3 0.0
18/03:30am NNW 19 22 - - - - - - - 12.3 1007.4 0.0
18/03:00am NNW 19 22 - - - - - - - 12.3 1007.4 0.0
18/02:30am NNW 19 23 - - - - - - - 12.2 1008.3 0.0
18/02:00am NNW 20 23 - - - - - - - 12.1 1008.7 0.0
18/01:30am NNW 18 21 - - - - - - - 12.0 1008.6 0.0
18/01:00am NNW 18 21 - - - - - - - 12.1 1009.1 0.0
18/12:30am NNW 18 21 - - - - - - - 11.9 1009.3 0.0
18/12:00am NNW 17 21 - - - - - - - 11.9 1010.0 0.0
 
Date/Time
EST
Wind Sea
Height
m
Swell Vis
km
Cloud Weather Temp
°C
Press
MSL
hPa
Rain since
9am
mm
Dir  Spd
kts
Gust
kts
Height
m
Period
s
Dir
17/11:30pm NNW 19 22 - - - - - - - 11.9 1010.9 0.0
17/11:00pm NNW 16 19 - - - - - - - 11.7 1011.0 0.0
17/10:30pm NNW 18 21 - - - - - - - 11.5 1011.7 0.0
17/10:00pm NNW 17 19 - - - - - - - 11.4 1011.7 0.0
17/09:30pm NNW 16 19 - - - - - - - 11.4 1012.1 0.0
17/09:00pm NNW 17 22 - - - - - - - 11.5 1011.9 0.0
17/08:30pm NNW 16 18 - - - - - - - 11.5 1012.1 0.0
17/08:00pm NW 16 19 - - - - - - - 11.6 1012.5 0.0
17/07:30pm NW 14 19 - - - - - - - 11.4 1013.0 0.0
17/07:00pm NW 14 18 - - - - - - - 11.4 1013.4 0.0
17/06:30pm WNW 10 14 - - - - - - - 10.8 1013.5 0.0
17/06:00pm NW 12 16 - - - - - - - 10.9 1013.8 0.0
17/05:30pm NW 14 18 - - - - - - - 10.8 1013.7 0.0
17/05:00pm NW 12 18 - - - - - - - 11.1 1013.5 0.0
17/04:30pm NW 13 17 - - - - - - - 11.2 1013.9 0.0
17/04:00pm NW 11 15 - - - - - - - 11.5 1013.6 0.0
17/03:30pm NW 14 17 - - - - - - - 11.7 1013.9 0.0
17/03:00pm NW 12 15 - - - - - - - 11.7 1014.4 0.0
17/02:30pm NW 10 15 - - - - - - - 11.7 1014.5 0.0
17/02:00pm NW 11 15 - - - - - - - 11.7 1015.0 0.0
17/01:30pm NW 11 15 - - - - - - - 11.6 1015.4 0.0
17/01:00pm NW 10 14 - - - - - - - 11.7 1015.8 0.0
17/12:30pm WNW 10 16 - - - - - - - 11.7 1016.5 0.0
17/12:00pm WNW 11 15 - - - - - - - 11.6 1017.0 0.0
17/11:30am NW 9 15 - - - - - - - 11.7 1017.4 0.0
17/11:00am NW 11 15 - - - - - - - 11.7 1017.5 0.0
17/10:30am NW 11 16 - - - - - - - 11.0 1017.6 0.0
17/10:00am NW 12 16 - - - - - - - 11.0 1017.9 0.0
17/09:30am N 10 13 - - - - - - - 11.3 1017.8 0.0
17/09:00am NNW 11 13 - - - - - - - 11.8 1017.5 0.2
17/08:30am NNW 12 13 - - - - - - - 11.4 1017.5 0.2
17/08:00am NNW 11 13 - - - - - - - 11.8 1017.4 0.2
17/07:30am NNW 10 13 - - - - - - - 11.8 1017.2 0.2
17/07:00am N 8 9 - - - - - - - 11.9 1016.9 0.2
17/06:30am N 4 6 - - - - - - - 11.8 1016.9 0.2
17/06:00am N 5 6 - - - - - - - 11.8 1016.3 0.2
17/05:30am N 6 7 - - - - - - - 11.7 1016.4 0.2
17/05:00am N 5 7 - - - - - - - 11.4 1016.4 0.2
17/04:30am N 5 6 - - - - - - - 11.4 1016.0 0.2
17/04:00am NNE 4 5 - - - - - - - 11.3 1015.4 0.2
17/03:30am ENE 4 6 - - - - - - - 11.5 1015.1 0.2
17/03:00am ENE 6 7 - - - - - - - 11.5 1015.1 0.2
17/02:30am ENE 5 7 - - - - - - - 11.6 1014.9 0.2
17/02:00am ESE 5 6 - - - - - - - 11.2 1014.7 0.2
17/01:30am ESE 6 7 - - - - - - - 11.4 1015.0 0.2
17/01:00am E 4 5 - - - - - - - 11.6 1014.8 0.2
17/12:30am E 6 7 - - - - - - - 11.5 1014.4 0.2
17/12:00am E 6 7 - - - - - - - 11.6 1014.3 0.2
 
Date/Time
EST
Wind Sea
Height
m
Swell Vis
km
Cloud Weather Temp
°C
Press
MSL
hPa
Rain since
9am
mm
Dir  Spd
kts
Gust
kts
Height
m
Period
s
Dir
16/11:30pm ESE 8 9 - - - - - - - 11.7 1014.1 0.2
16/11:00pm ESE 11 13 - - - - - - - 12.0 1013.9 0.2
16/10:30pm ESE 8 10 - - - - - - - 11.8 1014.1 0.2
16/10:00pm ESE 10 12 - - - - - - - 12.0 1014.0 0.2
16/09:30pm E 6 8 - - - - - - - 12.2 1013.9 0.2
16/09:00pm SE 8 13 - - - - - - - 12.4 1013.7 0.2
16/08:30pm S 6 9 - - - - - - - 12.3 1013.5 0.2
16/08:00pm WSW 4 5 - - - - - - - 12.0 1012.7 0.2
16/07:30pm WSW 3 5 - - - - - - - 12.0 1012.0 0.2
16/07:00pm WSW 4 7 - - - - - - - 11.8 1011.3 0.2
16/06:30pm WSW 5 6 - - - - - - - 11.6 1010.7 0.2
16/06:00pm W 5 7 - - - - - - - 12.3 1010.1 0.2
16/05:30pm W 5 7 - - - - - - - 12.6 1009.9 0.2
16/05:00pm W 9 11 - - - - - - - 12.8 1009.3 0.2
16/04:30pm W 11 15 - - - - - - - 13.0 1008.8 0.2
16/04:00pm W 8 11 - - - - - - - 13.9 1008.5 0.0
16/03:30pm W 11 14 - - - - - - - 14.4 1008.1 0.0
16/03:00pm W 11 15 - - - - - - - 13.8 1008.1 0.0
16/02:30pm W 10 14 - - - - - - - 14.4 1007.6 0.0
16/02:00pm W 8 13 - - - - - - - 14.9 1007.3 0.0
16/01:30pm W 7 10 - - - - - - - 14.9 1006.8 0.0
16/01:00pm W 7 11 - - - - - - - 15.0 1006.4 0.0
16/12:30pm W 7 9 - - - - - - - 14.8 1006.5 0.0
16/12:00pm W 8 10 - - - - - - - 14.5 1006.6 0.0
16/11:30am W 6 9 - - - - - - - 13.8 1006.6 0.0
16/11:00am W 7 10 - - - - - - - 13.2 1006.6 0.0
16/10:30am WSW 8 12 - - - - - - - 11.8 1006.1 0.0
16/10:00am W 8 12 - - - - - - - 11.8 1005.3 0.0

Other formats

Comma delimited format used in spreadsheet applications
http://www.bom.gov.au/fwo/IDT60701/IDT60701.95985.axf

JavaScript Object Notation format (JSON) in row-major order
http://www.bom.gov.au/fwo/IDT60701/IDT60701.95985.json

Data quality

Most of these data are generated automatically and are frequently updated. Quality checks on data are not normally performed. It is possible for incorrect values to appear. Refer to information at About Latest Weather Observations and please check the disclaimer before using these data.